Terminal Aerodrome Forecast
Issued by NWS

Home | Current Version | Previous Version | Text Only | Print | Product List | Glossary Off
Versions: 1 2 3 4 5 6 7 8 9 10 11 12 13 14 15

000
FTUS43 KTOP 200500
TAFMHK
TAF
KMHK 200520Z 2006/2106 19008KT P6SM FEW050
     FM200900 22005KT 6SM BR FEW015
     FM201200 25013KT P6SM SCT040
     FM202200 27008KT P6SM VCTS BKN040CB
     FM210200 34005KT P6SM BKN050=

USA.gov is the U.S. government's official web portal to all federal, state and local government web resources and services.